createdAt,value
2023-03-11T00:01:49.195Z,61.09
2023-03-11T00:03:36.158Z,62.85
2023-03-11T00:05:20.189Z,64.39
2023-03-11T00:07:03.967Z,62.06
2023-03-11T00:08:43.060Z,58.82
2023-03-11T00:10:22.156Z,56.29
2023-03-11T00:11:54.180Z,56.50
2023-03-11T00:13:46.188Z,57.97
2023-03-11T00:15:30.214Z,59.73
2023-03-11T00:17:15.958Z,61.39
2023-03-11T00:19:01.598Z,63.12
2023-03-11T00:20:33.939Z,64.27
2023-03-11T00:22:06.169Z,62.15
2023-03-11T00:23:59.184Z,59.32
2023-03-11T00:25:24.647Z,56.37
2023-03-11T00:27:13.527Z,56.46
2023-03-11T00:29:06.176Z,58.13
2023-03-11T00:30:38.357Z,59.98
2023-03-11T00:32:17.797Z,61.39
2023-03-11T00:33:50.095Z,62.88
2023-03-11T00:35:29.139Z,64.62
2023-03-11T00:37:12.916Z,63.14
2023-03-11T00:38:33.466Z,60.26
2023-03-11T00:40:19.648Z,57.32
2023-03-11T00:44:11.914Z,58.30
2023-03-11T00:45:34.532Z,59.78
2023-03-11T00:47:15.757Z,61.36
2023-03-11T00:51:10.055Z,63.91
2023-03-11T00:52:38.174Z,61.17
2023-03-11T00:54:21.617Z,58.37
2023-03-11T00:56:05.349Z,56.39
2023-03-11T00:57:45.241Z,57.33
2023-03-11T00:59:19.725Z,59.02
2023-03-11T01:01:14.196Z,60.70
2023-03-11T01:03:06.877Z,62.44
2023-03-11T01:04:50.507Z,64.49
2023-03-11T01:06:44.738Z,62.71
2023-03-11T01:08:38.186Z,59.35
2023-03-11T01:10:22.043Z,56.44
2023-03-11T01:12:05.701Z,56.82
2023-03-11T01:13:37.349Z,58.60
2023-03-11T01:15:11.852Z,60.03
2023-03-11T01:17:05.162Z,61.78
2023-03-11T01:18:48.867Z,64.10
2023-03-11T01:20:32.761Z,63.94
2023-03-11T01:21:58.482Z,61.27
2023-03-11T01:23:28.936Z,58.70
2023-03-11T01:25:08.654Z,56.34
2023-03-11T01:26:42.492Z,57.04
2023-03-11T01:28:12.840Z,58.41
2023-03-11T01:29:33.484Z,59.95
2023-03-11T01:31:14.235Z,61.38
2023-03-11T01:32:57.977Z,63.09
2023-03-11T01:34:51.149Z,64.33
2023-03-11T01:36:30.630Z,61.89
2023-03-11T01:38:14.178Z,58.89
2023-03-11T01:39:58.127Z,56.54
2023-03-11T01:41:32.766Z,57.27
2023-03-11T01:43:17.379Z,58.90
2023-03-11T01:44:56.812Z,60.81
2023-03-11T01:46:40.630Z,62.63
2023-03-11T01:48:01.046Z,64.92
2023-03-11T01:49:32.953Z,64.03
2023-03-11T01:51:02.806Z,61.83
2023-03-11T01:52:32.054Z,59.25
2023-03-11T01:54:11.910Z,56.97
2023-03-11T01:55:46.451Z,57.05
2023-03-11T01:57:18.691Z,58.73
2023-03-11T01:58:51.618Z,60.50
2023-03-11T02:00:20.282Z,61.89
2023-03-11T02:02:04.573Z,64.08
2023-03-11T02:03:32.194Z,64.22
2023-03-11T02:05:15.987Z,61.74
2023-03-11T02:06:55.475Z,58.69
2023-03-11T02:08:39.006Z,56.71
2023-03-11T02:10:22.769Z,57.59
2023-03-11T02:11:55.169Z,59.44
2023-03-11T02:13:38.093Z,61.10
2023-03-11T02:15:00.998Z,62.93
2023-03-11T02:16:44.609Z,64.70
2023-03-11T02:18:29.483Z,62.87
2023-03-11T02:20:01.846Z,59.92
2023-03-11T02:21:34.282Z,57.29
2023-03-11T02:23:18.995Z,56.81
2023-03-11T02:24:52.180Z,58.13
2023-03-11T02:26:35.731Z,59.97
2023-03-11T02:28:19.416Z,61.90
2023-03-11T02:29:58.724Z,64.01
2023-03-11T02:31:30.688Z,64.65
2023-03-11T02:32:51.640Z,62.51
2023-03-11T02:34:16.220Z,59.98
2023-03-11T02:35:50.673Z,57.14
2023-03-11T02:37:22.739Z,56.76
2023-03-11T02:39:04.018Z,58.02
2023-03-11T02:40:32.247Z,59.69
2023-03-11T02:42:15.881Z,61.42
2023-03-11T02:44:05.686Z,63.55
2023-03-11T02:45:30.938Z,64.47
2023-03-11T02:46:59.253Z,62.79
2023-03-11T02:48:42.895Z,59.98
2023-03-11T02:50:17.524Z,57.13
2023-03-11T02:52:01.418Z,56.86
2023-03-11T02:53:31.213Z,58.24
2023-03-11T02:55:15.260Z,59.99
2023-03-11T02:56:52.590Z,61.59
2023-03-11T02:58:26.650Z,63.80
2023-03-11T03:00:07.537Z,64.50
2023-03-11T03:01:59.489Z,62.24
2023-03-11T03:03:33.992Z,59.46
2023-03-11T03:05:08.255Z,56.98
2023-03-11T03:07:01.169Z,57.30
2023-03-11T03:08:44.673Z,59.16
2023-03-11T03:10:19.059Z,61.07
2023-03-11T03:12:00.886Z,62.99
2023-03-11T03:13:37.113Z,64.95
2023-03-11T03:15:20.832Z,63.05
2023-03-11T03:17:05.332Z,60.21
2023-03-11T03:18:41.439Z,57.63
2023-03-11T03:20:10.926Z,56.93
2023-03-11T03:21:41.207Z,58.30
2023-03-11T03:23:15.944Z,60.12
2023-03-11T03:24:51.036Z,61.61
2023-03-11T03:26:13.769Z,63.65
2023-03-11T03:27:47.217Z,64.49
2023-03-11T03:29:30.723Z,62.33
2023-03-11T03:31:11.937Z,59.86
2023-03-11T03:32:47.281Z,57.10
2023-03-11T03:34:12.341Z,57.14
2023-03-11T03:35:51.840Z,58.67
2023-03-11T03:37:38.638Z,60.76
2023-03-11T03:39:11.086Z,62.47
2023-03-11T03:40:45.815Z,64.72
2023-03-11T03:42:29.314Z,63.74
2023-03-11T03:44:13.020Z,60.97
2023-03-11T03:45:47.472Z,58.24
2023-03-11T03:47:19.510Z,57.01
2023-03-11T03:49:03.465Z,58.07
2023-03-11T03:50:35.147Z,60.05
2023-03-11T03:52:09.263Z,61.81
2023-03-11T03:53:53.128Z,64.21
2023-03-11T03:55:27.400Z,64.54
2023-03-11T03:56:50.806Z,62.76
2023-03-11T03:58:34.612Z,60.31
2023-03-11T04:00:21.610Z,57.77
2023-03-11T04:02:02.340Z,57.50
2023-03-11T04:03:41.489Z,59.16
2023-03-11T04:05:28.285Z,61.48
2023-03-11T04:07:03.711Z,64.09
2023-03-11T04:08:42.767Z,65.26
2023-03-11T04:10:34.840Z,62.61
2023-03-11T04:12:18.898Z,59.68
2023-03-11T04:13:51.562Z,57.81
2023-03-11T04:15:35.406Z,58.14
2023-03-11T04:17:07.644Z,60.11
2023-03-11T04:18:45.131Z,61.89
2023-03-11T04:20:19.993Z,64.95
2023-03-11T04:21:53.395Z,65.15
2023-03-11T04:23:26.298Z,63.06
2023-03-11T04:24:48.226Z,61.21
2023-03-11T04:26:10.818Z,59.53
2023-03-11T04:27:46.127Z,57.84
2023-03-11T04:29:29.913Z,58.12
2023-03-11T04:31:13.849Z,60.13
2023-03-11T04:32:45.979Z,62.27
2023-03-11T04:34:25.921Z,65.02
2023-03-11T04:35:58.635Z,64.95
2023-03-11T04:37:33.012Z,62.56
2023-03-11T04:39:16.524Z,60.33
2023-03-11T04:41:01.174Z,58.43
2023-03-11T04:42:35.190Z,57.94
2023-03-11T04:44:19.322Z,59.65
2023-03-11T04:45:56.354Z,61.72
2023-03-11T04:47:35.264Z,64.70
2023-03-11T04:49:08.139Z,65.11
2023-03-11T04:50:31.907Z,63.31
2023-03-11T04:52:06.482Z,61.11
2023-03-11T04:53:50.030Z,59.33
2023-03-11T04:55:21.601Z,57.65
2023-03-11T04:57:06.589Z,58.43
2023-03-11T04:58:55.515Z,60.55
2023-03-11T05:00:25.765Z,62.91
2023-03-11T05:02:12.480Z,65.31
2023-03-11T05:03:58.816Z,64.44
2023-03-11T05:05:38.701Z,61.96
2023-03-11T05:07:23.750Z,60.05
2023-03-11T05:08:59.057Z,58.06
2023-03-11T05:10:39.038Z,58.09
2023-03-11T05:12:23.203Z,59.87
2023-03-11T05:14:08.432Z,62.49
2023-03-11T05:15:42.843Z,65.34
2023-03-11T05:17:26.546Z,65.11
2023-03-11T05:19:16.692Z,62.44
2023-03-11T05:20:42.226Z,60.19
2023-03-11T05:22:26.022Z,58.43
2023-03-11T05:23:47.049Z,57.54
2023-03-11T05:25:34.921Z,59.08
2023-03-11T05:27:19.135Z,61.52
2023-03-11T05:28:55.833Z,64.43
2023-03-11T05:30:39.877Z,65.60
2023-03-11T05:32:23.736Z,63.84
2023-03-11T05:33:52.131Z,61.66
2023-03-11T05:35:45.221Z,59.53
2023-03-11T05:37:17.510Z,57.71
2023-03-11T05:39:02.008Z,58.66
2023-03-11T05:40:36.846Z,61.15
2023-03-11T05:42:08.948Z,63.64
2023-03-11T05:44:02.268Z,65.69
2023-03-11T05:45:42.153Z,64.21
2023-03-11T05:47:25.702Z,61.61
2023-03-11T05:49:09.698Z,59.75
2023-03-11T05:50:53.950Z,57.63
2023-03-11T05:52:34.887Z,58.34
2023-03-11T05:54:26.007Z,60.80
2023-03-11T05:56:06.169Z,64.05
2023-03-11T05:57:58.203Z,65.79
2023-03-11T05:59:33.403Z,63.80
2023-03-11T06:01:09.737Z,61.59
2023-03-11T06:03:03.218Z,59.81
2023-03-11T06:04:35.438Z,57.90
2023-03-11T06:06:22.912Z,58.52
2023-03-11T06:08:06.851Z,60.96
2023-03-11T06:09:41.633Z,63.61
2023-03-11T06:11:07.282Z,65.71
2023-03-11T06:12:48.091Z,64.82
2023-03-11T06:14:38.049Z,62.34
2023-03-11T06:16:22.192Z,59.98
2023-03-11T06:18:12.210Z,58.02
2023-03-11T06:19:43.062Z,58.40
2023-03-11T06:21:26.481Z,60.49
2023-03-11T06:22:49.519Z,62.89
2023-03-11T06:24:23.586Z,65.39
2023-03-11T06:25:55.895Z,64.93
2023-03-11T06:27:31.214Z,62.83
2023-03-11T06:29:10.886Z,60.67
2023-03-11T06:30:54.504Z,58.51
2023-03-11T06:32:28.812Z,57.92
2023-03-11T06:33:59.601Z,59.49
2023-03-11T06:35:52.204Z,61.80
2023-03-11T06:37:24.306Z,64.91
2023-03-11T06:39:08.368Z,65.53
2023-03-11T06:40:55.893Z,63.34
2023-03-11T06:42:39.613Z,60.79
2023-03-11T06:44:14.925Z,59.08
2023-03-11T06:45:49.186Z,57.64
2023-03-11T06:47:21.915Z,58.51
2023-03-11T06:48:54.077Z,60.77
2023-03-11T06:50:38.174Z,63.47
2023-03-11T06:52:12.602Z,65.33
2023-03-11T06:53:44.547Z,63.75
2023-03-11T06:55:28.411Z,61.74
2023-03-11T06:57:00.619Z,59.35
2023-03-11T06:58:39.717Z,57.45
2023-03-11T07:00:24.025Z,58.12
2023-03-11T07:02:11.347Z,60.64
2023-03-11T07:03:51.196Z,63.47
2023-03-11T07:05:35.758Z,65.86
2023-03-11T07:07:17.296Z,64.34
2023-03-11T07:09:05.000Z,61.62
2023-03-11T07:10:49.246Z,59.43
2023-03-11T07:12:22.867Z,57.74
2023-03-11T07:14:02.666Z,58.63
2023-03-11T07:15:45.215Z,60.87
2023-03-11T07:17:39.245Z,64.04
2023-03-11T07:19:24.465Z,65.97
2023-03-11T07:21:08.153Z,64.21
2023-03-11T07:22:31.626Z,61.99
2023-03-11T07:24:16.317Z,59.88
2023-03-11T07:26:09.087Z,58.11
2023-03-11T07:27:56.141Z,58.77
2023-03-11T07:29:39.287Z,61.29
2023-03-11T07:31:11.708Z,64.31
2023-03-11T07:32:34.113Z,65.90
2023-03-11T07:34:10.540Z,64.80
2023-03-11T07:35:50.092Z,62.52
2023-03-11T07:37:24.565Z,60.36
2023-03-11T07:39:06.141Z,58.36
2023-03-11T07:40:33.373Z,57.91
2023-03-11T07:42:12.697Z,59.65
2023-03-11T07:43:45.692Z,61.64
2023-03-11T07:45:24.461Z,64.09
2023-03-11T07:47:08.707Z,65.42
2023-03-11T07:48:37.839Z,63.46
2023-03-11T07:50:21.497Z,61.35
2023-03-11T07:52:03.298Z,59.49
2023-03-11T07:53:46.432Z,57.68
2023-03-11T07:55:30.557Z,58.67
2023-03-11T07:57:05.103Z,60.49
2023-03-11T07:58:36.676Z,62.57
2023-03-11T08:00:20.303Z,65.78
2023-03-11T08:02:08.284Z,64.88
2023-03-11T08:03:52.189Z,62.28
2023-03-11T08:05:26.723Z,60.23
2023-03-11T08:06:58.984Z,58.02
2023-03-11T08:08:38.105Z,57.97
2023-03-11T08:10:10.400Z,59.49
2023-03-11T08:11:38.309Z,62.00
2023-03-11T08:13:13.821Z,64.85
2023-03-11T08:14:48.339Z,66.04
2023-03-11T08:16:20.548Z,64.41
2023-03-11T08:18:03.962Z,61.56
2023-03-11T08:19:35.984Z,59.45
2023-03-11T08:21:06.751Z,57.73
2023-03-11T08:22:58.141Z,58.06
2023-03-11T08:24:41.901Z,60.50
2023-03-11T08:26:25.811Z,63.60
2023-03-11T08:28:09.362Z,65.86
2023-03-11T08:29:32.489Z,64.48
2023-03-11T08:31:14.227Z,62.35
2023-03-11T08:32:44.288Z,59.88
2023-03-11T08:34:27.927Z,57.88
2023-03-11T08:36:18.607Z,58.11
2023-03-11T08:37:39.371Z,60.06
2023-03-11T08:39:23.728Z,62.39
2023-03-11T08:41:08.501Z,65.74
2023-03-11T08:42:53.468Z,65.42
2023-03-11T08:44:37.156Z,62.92
2023-03-11T08:46:21.861Z,60.71
2023-03-11T08:48:01.713Z,58.57
2023-03-11T08:49:45.919Z,57.85
2023-03-11T08:51:26.129Z,59.71
2023-03-11T08:53:18.477Z,62.25
2023-03-11T08:55:00.149Z,65.37
2023-03-11T08:56:49.621Z,65.37
2023-03-11T08:58:17.931Z,62.95
2023-03-11T08:59:38.381Z,60.85
2023-03-11T09:01:09.254Z,59.01
2023-03-11T09:02:48.638Z,57.41
2023-03-11T09:04:40.820Z,58.69
2023-03-11T09:06:24.758Z,61.39
2023-03-11T09:08:05.725Z,64.60
2023-03-11T09:09:37.706Z,66.14
2023-03-11T09:11:21.929Z,64.47
2023-03-11T09:12:53.912Z,61.76
2023-03-11T09:14:25.395Z,59.88
2023-03-11T09:16:00.812Z,57.43
2023-03-11T09:17:34.991Z,57.02
2023-03-11T09:19:06.266Z,58.79
2023-03-11T09:20:51.220Z,61.50
2023-03-11T09:22:30.924Z,64.87
2023-03-11T09:24:03.529Z,66.04
2023-03-11T09:25:47.157Z,63.90
2023-03-11T09:27:27.876Z,61.18
2023-03-11T09:28:59.750Z,58.70
2023-03-11T09:30:31.975Z,57.46
2023-03-11T09:32:11.094Z,58.74
2023-03-11T09:33:54.922Z,61.12
2023-03-11T09:35:26.963Z,64.24
2023-03-11T09:36:59.232Z,66.26
2023-03-11T09:38:34.013Z,64.83
2023-03-11T09:40:17.730Z,62.06
2023-03-11T09:42:01.517Z,59.52
2023-03-11T09:43:35.326Z,57.04
2023-03-11T09:45:19.175Z,58.03
2023-03-11T09:47:03.348Z,60.63
2023-03-11T09:48:42.462Z,63.24
2023-03-11T09:50:06.284Z,66.05
2023-03-11T09:51:38.238Z,65.21
2023-03-11T09:53:19.633Z,63.04
2023-03-11T09:54:53.851Z,59.97
2023-03-11T09:56:28.278Z,57.80
2023-03-11T09:58:02.702Z,57.55
2023-03-11T09:59:34.802Z,59.30
2023-03-11T10:01:07.175Z,61.52
2023-03-11T10:02:46.832Z,64.25
2023-03-11T10:04:26.025Z,66.14
2023-03-11T10:05:58.414Z,63.86
2023-03-11T10:07:22.801Z,61.37
2023-03-11T10:09:04.285Z,58.43
2023-03-11T10:10:43.001Z,56.63
2023-03-11T10:12:06.095Z,58.13
2023-03-11T10:13:31.379Z,60.29
2023-03-11T10:15:15.598Z,62.82
2023-03-11T10:16:41.493Z,66.02
2023-03-11T10:18:24.870Z,65.61
2023-03-11T10:20:08.915Z,63.12
2023-03-11T10:21:52.241Z,60.42
2023-03-11T10:23:36.421Z,57.99
2023-03-11T10:24:57.345Z,57.88
2023-03-11T10:26:32.104Z,58.94
2023-03-11T10:28:16.631Z,61.49
2023-03-11T10:29:39.072Z,64.31
2023-03-11T10:31:23.131Z,65.96
2023-03-11T10:32:55.687Z,64.41
2023-03-11T10:34:39.231Z,61.86
2023-03-11T10:36:23.892Z,59.47
2023-03-11T10:38:03.803Z,57.24
2023-03-11T10:39:38.735Z,57.52
2023-03-11T10:41:22.315Z,59.82
2023-03-11T10:43:11.355Z,62.28
2023-03-11T10:44:41.251Z,65.66
2023-03-11T10:46:24.940Z,65.69
2023-03-11T10:48:09.143Z,62.91
2023-03-11T10:49:43.683Z,60.53
2023-03-11T10:51:31.488Z,58.00
2023-03-11T10:53:03.870Z,56.71
2023-03-11T10:54:47.510Z,58.69
2023-03-11T10:56:31.410Z,60.95
2023-03-11T10:58:14.934Z,64.06
2023-03-11T10:59:59.209Z,66.02
2023-03-11T11:01:31.135Z,63.97
2023-03-11T11:03:03.026Z,61.79
2023-03-11T11:04:34.525Z,59.31
2023-03-11T11:06:18.554Z,56.63
2023-03-11T11:07:58.111Z,57.70
2023-03-11T11:09:31.720Z,59.60
2023-03-11T11:11:15.386Z,62.43
2023-03-11T11:13:08.259Z,65.67
2023-03-11T11:14:52.158Z,65.07
2023-03-11T11:16:14.613Z,62.29
2023-03-11T11:18:02.918Z,59.99
2023-03-11T11:19:46.633Z,57.36
2023-03-11T11:21:30.491Z,57.52
2023-03-11T11:23:14.845Z,59.58
2023-03-11T11:25:02.601Z,62.29
2023-03-11T11:26:43.130Z,66.15
2023-03-11T11:28:14.875Z,65.47
2023-03-11T11:30:07.173Z,62.56
2023-03-11T11:31:51.273Z,59.34
2023-03-11T11:33:13.951Z,57.06
2023-03-11T11:34:46.371Z,57.27
2023-03-11T11:36:29.890Z,59.36
2023-03-11T11:38:11.347Z,62.12
2023-03-11T11:39:56.268Z,64.89
2023-03-11T11:41:32.557Z,65.10
2023-03-11T11:43:04.088Z,62.70
2023-03-11T11:44:50.337Z,60.02
2023-03-11T11:46:34.024Z,57.54
2023-03-11T11:48:08.640Z,56.89
2023-03-11T11:49:52.061Z,58.77
2023-03-11T11:51:37.667Z,61.21
2023-03-11T11:53:12.833Z,64.35
2023-03-11T11:54:58.735Z,66.15
2023-03-11T11:56:42.141Z,64.17
2023-03-11T11:58:26.190Z,61.07
2023-03-11T12:00:09.543Z,58.55
2023-03-11T12:01:34.718Z,56.74
2023-03-11T12:03:00.506Z,57.63
2023-03-11T12:04:32.387Z,59.63
2023-03-11T12:06:16.345Z,62.32
2023-03-11T12:07:44.327Z,65.52
2023-03-11T12:09:14.898Z,65.70
2023-03-11T12:10:47.035Z,63.83
2023-03-11T12:12:19.272Z,60.80
2023-03-11T12:13:54.309Z,58.43
2023-03-11T12:15:17.019Z,57.26
2023-03-11T12:16:56.286Z,58.23
2023-03-11T12:18:39.645Z,60.25
2023-03-11T12:20:23.869Z,63.15
2023-03-11T12:22:11.703Z,65.88
2023-03-11T12:23:51.876Z,64.46
2023-03-11T12:25:33.350Z,61.59
2023-03-11T12:27:18.163Z,58.90
2023-03-11T12:28:52.863Z,57.14
2023-03-11T12:30:38.162Z,58.22
2023-03-11T12:32:30.344Z,60.80
2023-03-11T12:34:14.480Z,63.72
2023-03-11T12:35:59.210Z,66.24
2023-03-11T12:37:33.254Z,64.25
2023-03-11T12:39:17.319Z,61.36
2023-03-11T12:41:01.671Z,58.59
2023-03-11T12:42:45.243Z,57.14
2023-03-11T12:44:16.538Z,58.43
2023-03-11T12:45:57.437Z,60.36
2023-03-11T12:47:41.109Z,63.30
2023-03-11T12:49:26.215Z,66.14
2023-03-11T12:50:48.730Z,64.57
2023-03-11T12:52:37.288Z,61.73
2023-03-11T12:54:14.163Z,58.87
2023-03-11T12:56:06.474Z,56.66
2023-03-11T12:57:38.467Z,57.36
2023-03-11T12:59:22.632Z,59.65
2023-03-11T13:01:07.338Z,62.24
2023-03-11T13:02:48.937Z,65.67
2023-03-11T13:04:32.753Z,65.11
2023-03-11T13:06:17.105Z,62.14
2023-03-11T13:07:47.557Z,59.07
2023-03-11T13:09:21.493Z,56.87
2023-03-11T13:10:53.669Z,57.53
2023-03-11T13:12:37.045Z,59.47
2023-03-11T13:14:20.897Z,61.51
2023-03-11T13:16:00.492Z,64.65
2023-03-11T13:17:43.715Z,65.64
2023-03-11T13:19:27.224Z,63.18
2023-03-11T13:21:11.496Z,59.76
2023-03-11T13:22:53.864Z,56.75
2023-03-11T13:24:26.896Z,56.54
2023-03-11T13:25:49.499Z,58.15
2023-03-11T13:27:32.578Z,60.07
2023-03-11T13:29:04.809Z,62.18
2023-03-11T13:30:32.788Z,64.33
2023-03-11T13:32:16.754Z,65.23
2023-03-11T13:33:39.419Z,62.69
2023-03-11T13:35:23.993Z,59.75
2023-03-11T13:36:56.374Z,56.39
2023-03-11T13:38:19.539Z,56.03
2023-03-11T13:40:03.573Z,57.73
2023-03-11T13:41:46.907Z,59.82
2023-03-11T13:43:26.223Z,62.08
2023-03-11T13:45:10.823Z,65.03
2023-03-11T13:46:54.811Z,65.02
2023-03-11T13:48:23.450Z,62.29
2023-03-11T13:49:57.650Z,59.60
2023-03-11T13:51:22.842Z,56.45
2023-03-11T13:53:01.974Z,56.60
2023-03-11T13:54:45.190Z,58.29
2023-03-11T13:56:39.203Z,60.44
2023-03-11T13:58:22.749Z,63.09
2023-03-11T14:00:10.583Z,65.08
2023-03-11T14:01:54.206Z,62.82
2023-03-11T14:03:26.496Z,59.39
2023-03-11T14:05:01.259Z,56.32
2023-03-11T14:06:44.086Z,56.45
2023-03-11T14:08:37.183Z,57.87
2023-03-11T14:10:11.553Z,60.25
2023-03-11T14:12:03.612Z,61.75
2023-03-11T14:13:40.675Z,64.72
2023-03-11T14:15:20.058Z,65.22
2023-03-11T14:17:05.425Z,62.07
2023-03-11T14:18:34.891Z,58.53
2023-03-11T14:20:15.656Z,55.97
2023-03-11T14:21:49.069Z,56.17
2023-03-11T14:23:24.417Z,57.29
2023-03-11T14:25:04.399Z,59.62
2023-03-11T14:26:38.551Z,61.36
2023-03-11T14:28:02.220Z,63.59
2023-03-11T14:29:34.373Z,65.39
2023-03-11T14:31:18.299Z,63.97
2023-03-11T14:33:02.311Z,60.27
2023-03-11T14:34:34.492Z,57.43
2023-03-11T14:36:06.624Z,56.12
2023-03-11T14:37:38.200Z,57.18
2023-03-11T14:39:22.310Z,59.54
2023-03-11T14:41:11.205Z,61.88
2023-03-11T14:42:55.112Z,65.08
2023-03-11T14:44:48.345Z,65.22
2023-03-11T14:46:20.503Z,61.85
2023-03-11T14:48:04.551Z,59.13
2023-03-11T14:49:24.700Z,56.15
2023-03-11T14:50:48.589Z,56.38
2023-03-11T14:52:32.467Z,58.30
2023-03-11T14:54:16.393Z,60.74
2023-03-11T14:56:06.073Z,62.85
2023-03-11T14:57:59.158Z,66.02
2023-03-11T14:59:34.385Z,64.18
2023-03-11T15:01:09.133Z,60.79
2023-03-11T15:02:48.289Z,58.39
2023-03-11T15:04:23.079Z,56.36
2023-03-11T15:06:02.714Z,57.75
2023-03-11T15:07:22.606Z,59.55
2023-03-11T15:09:06.378Z,61.85
2023-03-11T15:10:38.038Z,65.04
2023-03-11T15:12:19.364Z,65.72
2023-03-11T15:14:06.805Z,63.11
2023-03-11T15:15:50.314Z,59.78
2023-03-11T15:17:39.899Z,56.90
2023-03-11T15:19:04.261Z,56.92
2023-03-11T15:20:27.255Z,58.47
2023-03-11T15:22:06.452Z,60.40
2023-03-11T15:23:38.184Z,62.89
2023-03-11T15:25:19.825Z,65.96
2023-03-11T15:27:00.855Z,64.78
2023-03-11T15:28:33.641Z,62.06
2023-03-11T15:30:06.436Z,58.92
2023-03-11T15:31:45.741Z,56.21
2023-03-11T15:33:39.291Z,56.56
2023-03-11T15:35:11.730Z,59.25
2023-03-11T15:37:06.440Z,61.49
2023-03-11T15:38:59.161Z,64.61
2023-03-11T15:40:45.688Z,64.53
2023-03-11T15:42:17.907Z,60.98
2023-03-11T15:44:11.252Z,57.69
2023-03-11T15:45:54.901Z,55.75
2023-03-11T15:47:29.515Z,56.75
2023-03-11T15:49:13.586Z,58.76
2023-03-11T15:50:54.149Z,60.88
2023-03-11T15:52:38.077Z,62.57
2023-03-11T15:54:10.527Z,65.11
2023-03-11T15:58:05.227Z,59.75
2023-03-11T15:59:48.872Z,55.79
2023-03-11T16:01:34.105Z,55.68
2023-03-11T16:03:17.556Z,57.60
2023-03-11T16:05:10.422Z,59.64
2023-03-11T16:07:07.063Z,61.55
2023-03-11T16:08:41.181Z,63.37
2023-03-11T16:10:13.419Z,64.92
2023-03-11T16:11:57.322Z,62.31
2023-03-11T16:13:40.796Z,58.10
2023-03-11T16:15:24.021Z,55.16
2023-03-11T16:17:08.077Z,55.70
2023-03-11T16:18:40.009Z,57.28
2023-03-11T16:20:12.916Z,58.88
2023-03-11T16:22:05.214Z,60.54
2023-03-11T16:23:25.805Z,62.51
2023-03-11T16:25:19.240Z,64.48
2023-03-11T16:27:03.116Z,63.34
2023-03-11T16:28:37.460Z,58.24
2023-03-11T16:30:11.832Z,54.91
2023-03-11T16:31:53.471Z,54.41
2023-03-11T16:33:33.033Z,55.82
2023-03-11T16:35:18.573Z,57.14
2023-03-11T16:36:53.501Z,58.96
2023-03-11T16:38:26.121Z,60.79
2023-03-11T16:39:58.680Z,62.03
2023-03-11T16:41:38.002Z,62.91
2023-03-11T16:43:22.126Z,65.16
2023-03-11T16:45:15.122Z,62.83
2023-03-11T16:46:37.746Z,58.05
2023-03-11T16:48:02.839Z,55.31
2023-03-11T16:49:34.480Z,55.06
2023-03-11T16:51:07.174Z,56.13
2023-03-11T16:52:34.823Z,57.59
2023-03-11T16:54:09.704Z,59.04
2023-03-11T16:55:37.485Z,60.94
2023-03-11T16:57:21.869Z,62.45
2023-03-11T16:58:54.191Z,64.70
2023-03-11T17:00:37.475Z,64.13
2023-03-11T17:02:12.391Z,60.55
2023-03-11T17:03:55.552Z,56.41
2023-03-11T17:05:29.463Z,55.15
2023-03-11T17:07:09.127Z,55.84
2023-03-11T17:08:53.445Z,57.71
2023-03-11T17:10:38.561Z,59.38
2023-03-11T17:12:24.353Z,60.47
2023-03-11T17:14:03.299Z,61.64
2023-03-11T17:15:54.220Z,63.32
2023-03-11T17:17:24.740Z,64.69
2023-03-11T17:19:08.788Z,61.87
2023-03-11T17:20:55.335Z,57.63
2023-03-11T17:22:38.943Z,54.55
2023-03-11T17:24:09.146Z,55.26
2023-03-11T17:25:31.228Z,56.77
2023-03-11T17:27:15.430Z,58.43
2023-03-11T17:28:44.990Z,59.99
2023-03-11T17:30:36.451Z,61.68
2023-03-11T17:32:20.872Z,63.34
2023-03-11T17:34:04.677Z,64.92
2023-03-11T17:35:53.356Z,61.96
2023-03-11T17:37:19.235Z,58.02
2023-03-11T17:38:46.529Z,55.16
2023-03-11T17:40:18.765Z,55.26
2023-03-11T17:41:57.306Z,56.56
2023-03-11T17:43:36.627Z,58.38
2023-03-11T17:45:20.618Z,60.19
2023-03-11T17:46:56.022Z,61.62
2023-03-11T17:48:28.078Z,63.33
2023-03-11T17:50:12.282Z,64.51
2023-03-11T17:52:02.019Z,61.67
2023-03-11T17:53:21.950Z,57.76
2023-03-11T17:55:05.212Z,55.04
2023-03-11T17:56:49.002Z,55.26
2023-03-11T17:58:21.204Z,56.99
2023-03-11T18:00:10.138Z,58.52
2023-03-11T18:01:45.308Z,60.12
2023-03-11T18:03:08.992Z,61.37
2023-03-11T18:04:58.299Z,62.18
2023-03-11T18:06:30.116Z,64.02
2023-03-11T18:08:02.353Z,63.93
2023-03-11T18:09:41.646Z,60.77
2023-03-11T18:11:18.788Z,56.56
2023-03-11T18:12:51.437Z,54.87
2023-03-11T18:14:18.840Z,55.49
2023-03-11T18:16:02.343Z,57.02
2023-03-11T18:17:30.000Z,58.37
2023-03-11T18:18:58.078Z,59.94
2023-03-11T18:20:51.147Z,61.28
2023-03-11T18:22:35.457Z,63.09
2023-03-11T18:24:19.950Z,64.35
2023-03-11T18:25:45.061Z,61.95
2023-03-11T18:27:28.188Z,58.19
2023-03-11T18:29:24.251Z,54.59
2023-03-11T18:31:08.636Z,55.07
2023-03-11T18:32:55.381Z,56.82
2023-03-11T18:34:29.996Z,58.77
2023-03-11T18:36:02.725Z,60.11
2023-03-11T18:37:34.477Z,61.37
2023-03-11T18:39:11.553Z,62.88
2023-03-11T18:40:47.615Z,64.42
2023-03-11T18:42:21.955Z,62.62
2023-03-11T18:44:05.592Z,59.12
2023-03-11T18:45:28.088Z,55.60
2023-03-11T18:47:09.182Z,54.98
2023-03-11T18:48:40.735Z,56.25
2023-03-11T18:50:13.282Z,58.07
2023-03-11T18:51:56.996Z,59.50
2023-03-11T18:53:36.396Z,61.02
2023-03-11T18:54:57.724Z,62.22
2023-03-11T18:56:30.473Z,64.05
2023-03-11T18:58:15.520Z,64.54
2023-03-11T19:00:04.248Z,61.41
2023-03-11T19:01:34.600Z,57.01
2023-03-11T19:03:09.845Z,55.17
2023-03-11T19:04:54.360Z,55.88
2023-03-11T19:06:17.350Z,57.41
2023-03-11T19:07:40.281Z,58.74
2023-03-11T19:09:05.970Z,60.09
2023-03-11T19:10:49.838Z,61.53
2023-03-11T19:12:22.873Z,63.06
2023-03-11T19:13:47.682Z,64.85
2023-03-11T19:15:22.531Z,63.13
2023-03-11T19:16:54.873Z,59.98
2023-03-11T19:18:32.805Z,56.10
2023-03-11T19:20:03.529Z,55.22
2023-03-11T19:21:28.021Z,56.28
2023-03-11T19:22:59.712Z,57.65
2023-03-11T19:24:29.788Z,59.45
2023-03-11T19:26:05.385Z,60.93
2023-03-11T19:27:49.526Z,62.65
2023-03-11T19:29:10.816Z,64.77
2023-03-11T19:30:31.318Z,64.38
2023-03-11T19:31:51.746Z,61.84
2023-03-11T19:33:35.521Z,58.46
2023-03-11T19:35:10.176Z,55.78
2023-03-11T19:36:52.409Z,55.88
2023-03-11T19:38:24.704Z,57.65
2023-03-11T19:40:10.996Z,59.38
2023-03-11T19:41:51.033Z,61.44
2023-03-11T19:43:14.157Z,62.71
2023-03-11T19:44:49.367Z,64.97
2023-03-11T19:46:12.731Z,64.56
2023-03-11T19:47:52.225Z,61.28
2023-03-11T19:49:21.356Z,57.81
2023-03-11T19:51:05.270Z,55.61
2023-03-11T19:52:44.558Z,56.26
2023-03-11T19:54:13.114Z,57.62
2023-03-11T19:55:33.584Z,59.35
2023-03-11T19:56:56.736Z,60.74
2023-03-11T19:58:19.178Z,62.10
2023-03-11T20:00:02.697Z,64.10
2023-03-11T20:01:27.579Z,64.71
2023-03-11T20:03:11.841Z,61.92
2023-03-11T20:04:44.090Z,58.57
2023-03-11T20:06:29.402Z,55.51
2023-03-11T20:08:23.197Z,55.95
2023-03-11T20:09:57.255Z,57.94
2023-03-11T20:11:38.127Z,59.43
2023-03-11T20:13:10.496Z,61.52
2023-03-11T20:14:52.945Z,63.22
2023-03-11T20:16:18.645Z,65.02
2023-03-11T20:17:41.691Z,63.60
2023-03-11T20:19:21.686Z,60.35
2023-03-11T20:20:54.738Z,57.00
2023-03-11T20:22:22.622Z,55.31
2023-03-11T20:23:50.467Z,56.12
2023-03-11T20:25:25.172Z,57.80
2023-03-11T20:27:08.873Z,59.80
2023-03-11T20:28:29.413Z,61.51
2023-03-11T20:30:13.422Z,63.18
2023-03-11T20:31:57.247Z,65.13
2023-03-11T20:33:31.678Z,63.17
2023-03-11T20:35:15.570Z,59.50
2023-03-11T20:36:59.593Z,55.93
2023-03-11T20:38:34.591Z,55.66
2023-03-11T20:40:07.293Z,57.34
2023-03-11T20:41:39.221Z,59.02
2023-03-11T20:43:14.204Z,60.53
2023-03-11T20:44:46.148Z,62.29
2023-03-11T20:46:18.170Z,64.58
2023-03-11T20:48:02.011Z,64.74
2023-03-11T20:49:41.580Z,61.53
2023-03-11T20:51:25.671Z,57.72
2023-03-11T20:52:57.633Z,55.56
2023-03-11T20:54:46.202Z,56.33
2023-03-11T20:56:19.215Z,58.09
2023-03-11T20:58:02.802Z,60.18
2023-03-11T20:59:34.596Z,62.00
2023-03-11T21:01:19.149Z,64.10
2023-03-11T21:02:51.764Z,64.87
2023-03-11T21:04:24.597Z,62.31
2023-03-11T21:05:59.355Z,58.41
2023-03-11T21:07:26.851Z,55.80
2023-03-11T21:08:47.398Z,56.00
2023-03-11T21:10:19.496Z,57.50
2023-03-11T21:12:02.968Z,59.22